Time;durP1;ratioP1;P1;durP2;ratioP2;P2;SDS_P1;SDS_P2;PMS_P1;PMS_P2;Temp;Humidity;BMP_temperature;BMP_pressure;BME280_temperature;BME280_humidity;BME280_pressure;Samples;Min_cycle;Max_cycle;Signal;HPM_P1;HPM_P2
2023/01/31 00:00:28;;;;;;;;;;;26.00;99.90;;;;;;5085810;28;19909;-72
2023/01/31 00:02:55;;;;;;;;;;;25.80;99.90;;;;;;5071320;28;19966;-72
2023/01/31 00:05:21;;;;;;;;;;;25.60;99.90;;;;;;5080874;28;19971;-72
2023/01/31 00:07:48;;;;;;;;;;;25.50;99.90;;;;;;5090295;28;19920;-72
2023/01/31 00:10:15;;;;;;;;;;;25.50;99.90;;;;;;5087545;28;19948;-72
2023/01/31 00:12:41;;;;;;;;;;;25.50;99.90;;;;;;5071891;28;19955;-73
2023/01/31 00:15:08;;;;;;;;;;;25.50;99.90;;;;;;5078152;28;19931;-74
2023/01/31 00:17:35;;;;;;;;;;;25.60;99.90;;;;;;5091781;28;19912;-70
2023/01/31 00:20:02;;;;;;;;;;;25.50;99.90;;;;;;5089767;28;19915;-72
2023/01/31 00:22:28;;;;;;;;;;;25.60;99.90;;;;;;5073414;28;19920;-72
2023/01/31 00:24:56;;;;;;;;;;;25.40;99.90;;;;;;5079297;28;19917;-71
2023/01/31 00:27:23;;;;;;;;;;;25.30;99.90;;;;;;5095304;28;19923;-72
2023/01/31 00:29:50;;;;;;;;;;;25.20;99.90;;;;;;5094679;28;19913;-73
2023/01/31 00:32:16;;;;;;;;;;;25.10;99.90;;;;;;5074767;28;19918;-71
2023/01/31 00:34:43;;;;;;;;;;;24.90;99.90;;;;;;5076882;28;19932;-72
2023/01/31 00:37:09;;;;;;;;;;;24.90;99.90;;;;;;5095047;28;19916;-71
2023/01/31 00:39:36;;;;;;;;;;;24.80;99.90;;;;;;5094792;28;19908;-71
2023/01/31 00:42:06;;;;;;;;;;;24.60;99.90;;;;;;5093519;28;20150;-72
2023/01/31 00:44:33;;;;;;;;;;;24.60;99.90;;;;;;5095019;28;20365;-66
2023/01/31 00:47:00;;;;;;;;;;;24.60;99.90;;;;;;5095515;28;19915;-71
2023/01/31 00:49:26;;;;;;;;;;;24.50;99.90;;;;;;5095144;28;20007;-72
2023/01/31 00:51:53;;;;;;;;;;;24.60;99.90;;;;;;5093581;28;19955;-68
2023/01/31 00:54:20;;;;;;;;;;;24.60;99.90;;;;;;5094990;28;19908;-64
2023/01/31 00:56:46;;;;;;;;;;;24.70;99.90;;;;;;5095246;28;20280;-66
2023/01/31 00:59:13;;;;;;;;;;;24.80;99.90;;;;;;5094989;28;19908;-68
2023/01/31 01:01:40;;;;;;;;;;;24.90;99.90;;;;;;5094833;28;19908;-65
2023/01/31 01:04:06;;;;;;;;;;;25.00;99.90;;;;;;5094659;28;20433;-64
2023/01/31 01:06:33;;;;;;;;;;;25.00;99.90;;;;;;5095098;28;19908;-69
2023/01/31 01:09:00;;;;;;;;;;;25.00;99.90;;;;;;5094615;28;19916;-66
2023/01/31 01:11:28;;;;;;;;;;;25.00;99.90;;;;;;5094904;28;20333;-66
2023/01/31 01:13:55;;;;;;;;;;;24.90;99.90;;;;;;5094507;28;19919;-65
2023/01/31 01:16:26;;;;;;;;;;;24.90;99.90;;;;;;5094396;28;19909;-64
2023/01/31 01:18:54;;;;;;;;;;;24.80;99.90;;;;;;5094540;28;19908;-66
2023/01/31 01:21:27;;;;;;;;;;;24.70;99.90;;;;;;5094555;28;20279;-72
2023/01/31 01:23:58;;;;;;;;;;;24.70;99.90;;;;;;5094632;28;20357;-66
2023/01/31 01:26:26;;;;;;;;;;;24.70;99.90;;;;;;5094680;28;19908;-70
2023/01/31 01:28:53;;;;;;;;;;;24.60;99.90;;;;;;5094061;28;19916;-66
2023/01/31 01:31:21;;;;;;;;;;;24.60;99.90;;;;;;5094451;28;19908;-66
2023/01/31 01:33:48;;;;;;;;;;;24.60;99.90;;;;;;5093476;28;19943;-69
2023/01/31 01:36:16;;;;;;;;;;;24.60;99.90;;;;;;5094174;28;19927;-64
2023/01/31 01:38:44;;;;;;;;;;;24.60;99.90;;;;;;5093726;28;20360;-70
2023/01/31 01:41:11;;;;;;;;;;;24.80;99.90;;;;;;5094193;28;19966;-66
2023/01/31 01:43:42;;;;;;;;;;;24.80;99.90;;;;;;5093814;28;19908;-67
2023/01/31 01:46:10;;;;;;;;;;;24.80;99.90;;;;;;5093953;28;19919;-67
2023/01/31 01:48:37;;;;;;;;;;;25.00;99.90;;;;;;5093628;28;19920;-65
2023/01/31 01:51:05;;;;;;;;;;;25.20;99.90;;;;;;5093652;28;19912;-65
2023/01/31 01:53:34;;;;;;;;;;;25.30;99.90;;;;;;5093730;28;19920;-69
2023/01/31 01:56:07;;;;;;;;;;;25.50;99.90;;;;;;5093353;28;19913;-73
2023/01/31 01:59:00;;;;;;;;;;;25.70;99.90;;;;;;5093401;28;19912;-73
2023/01/31 02:01:29;;;;;;;;;;;26.00;99.90;;;;;;5084691;28;19955;-69
2023/01/31 02:03:55;;;;;;;;;;;26.30;99.90;;;;;;5093220;28;20403;-73
2023/01/31 02:06:22;;;;;;;;;;;26.50;99.90;;;;;;5093325;28;19912;-74
2023/01/31 02:08:49;;;;;;;;;;;26.60;99.90;;;;;;5093054;28;19920;-69
2023/01/31 02:11:22;;;;;;;;;;;26.70;99.90;;;;;;5093439;28;19922;-72
2023/01/31 02:13:50;;;;;;;;;;;26.80;99.90;;;;;;5093553;28;19904;-68
2023/01/31 02:16:17;;;;;;;;;;;27.10;99.90;;;;;;5093277;28;19996;-69
2023/01/31 02:18:44;;;;;;;;;;;27.30;99.80;;;;;;5092964;28;19908;-72
2023/01/31 02:21:29;;;;;;;;;;;27.30;99.80;;;;;;5093168;28;19919;-72
2023/01/31 02:24:01;;;;;;;;;;;27.30;99.80;;;;;;5093247;28;19908;-72
2023/01/31 02:26:47;;;;;;;;;;;27.20;99.90;;;;;;5093256;28;19912;-71
2023/01/31 02:29:32;;;;;;;;;;;26.90;99.90;;;;;;5093199;28;19920;-72
2023/01/31 02:31:59;;;;;;;;;;;26.60;99.90;;;;;;5093093;28;19912;-72
2023/01/31 02:34:34;;;;;;;;;;;26.30;99.90;;;;;;5092896;28;20230;-73
2023/01/31 02:37:08;;;;;;;;;;;26.20;99.90;;;;;;5092943;28;20357;-73
2023/01/31 02:39:40;;;;;;;;;;;26.30;99.90;;;;;;5092891;28;20007;-71
2023/01/31 02:42:15;;;;;;;;;;;26.80;99.90;;;;;;5093279;28;19912;-68
2023/01/31 02:45:03;;;;;;;;;;;27.30;99.90;;;;;;5092826;28;19908;-66
2023/01/31 02:47:33;;;;;;;;;;;27.90;98.60;;;;;;5091192;28;20314;-68
2023/01/31 02:50:28;;;;;;;;;;;28.30;98.40;;;;;;5092767;28;19990;-68
2023/01/31 02:53:09;;;;;;;;;;;28.50;97.90;;;;;;5087554;28;20285;-68
2023/01/31 02:58:41;;;;;;;;;;;29.10;96.50;;;;;;5092371;28;19946;-69
2023/01/31 03:01:10;;;;;;;;;;;29.20;96.20;;;;;;5092848;28;19912;-68
2023/01/31 03:03:37;;;;;;;;;;;29.20;95.80;;;;;;5092771;28;20280;-68
2023/01/31 03:06:10;;;;;;;;;;;29.40;95.60;;;;;;5092566;28;19912;-70
2023/01/31 03:08:43;;;;;;;;;;;29.40;95.70;;;;;;5092034;28;19924;-70
2023/01/31 03:11:09;;;;;;;;;;;29.40;95.60;;;;;;5092234;28;20334;-69
2023/01/31 03:13:53;;;;;;;;;;;29.50;95.70;;;;;;5092518;28;19912;-70
2023/01/31 03:19:20;;;;;;;;;;;29.70;95.40;;;;;;5067543;28;19964;-66
2023/01/31 03:21:51;;;;;;;;;;;30.00;95.00;;;;;;5071864;28;19962;-72
2023/01/31 03:24:19;;;;;;;;;;;30.50;94.10;;;;;;5087517;28;20246;-69
2023/01/31 03:26:46;;;;;;;;;;;30.80;93.50;;;;;;5091955;28;19915;-71
2023/01/31 03:29:15;;;;;;;;;;;31.00;93.90;;;;;;5093521;28;20054;-73
2023/01/31 03:31:46;;;;;;;;;;;31.30;92.70;;;;;;5096097;28;19908;-72
2023/01/31 03:34:14;;;;;;;;;;;31.40;92.90;;;;;;5094635;28;19951;-70
2023/01/31 03:36:53;;;;;;;;;;;31.40;92.20;;;;;;5091967;28;19927;-73
2023/01/31 03:39:25;;;;;;;;;;;31.40;92.40;;;;;;5092477;28;19912;-73
2023/01/31 03:41:52;;;;;;;;;;;31.20;92.10;;;;;;5092248;28;19908;-75
2023/01/31 03:44:48;;;;;;;;;;;30.80;92.00;;;;;;5092500;28;19920;-72
2023/01/31 03:47:32;;;;;;;;;;;30.50;92.40;;;;;;5086923;28;20433;-71
2023/01/31 03:50:01;;;;;;;;;;;30.30;94.10;;;;;;5092023;28;19981;-73
2023/01/31 03:52:33;;;;;;;;;;;29.90;94.80;;;;;;5092175;28;20295;-72
2023/01/31 03:55:03;;;;;;;;;;;29.80;95.60;;;;;;5071585;28;19948;-70
2023/01/31 03:57:39;;;;;;;;;;;29.70;95.50;;;;;;5082200;28;19937;-71
2023/01/31 04:00:08;;;;;;;;;;;29.80;95.50;;;;;;5075723;28;19912;-65
2023/01/31 04:02:35;;;;;;;;;;;30.70;95.30;;;;;;5076002;28;20006;-66
2023/01/31 04:05:05;;;;;;;;;;;32.70;93.40;;;;;;5095902;28;19912;-65
2023/01/31 04:07:32;;;;;;;;;;;33.70;91.80;;;;;;5095320;28;19912;-72
2023/01/31 04:09:58;;;;;;;;;;;34.50;90.30;;;;;;5095555;28;19916;-73
2023/01/31 04:12:25;;;;;;;;;;;34.60;89.00;;;;;;5095831;28;20003;-71
2023/01/31 04:14:51;;;;;;;;;;;35.00;87.80;;;;;;5095772;28;19955;-68
2023/01/31 04:17:18;;;;;;;;;;;34.90;88.10;;;;;;5095250;28;19994;-65
2023/01/31 04:19:45;;;;;;;;;;;34.50;87.60;;;;;;5095523;28;19912;-66
2023/01/31 04:22:11;;;;;;;;;;;34.50;87.80;;;;;;5095003;28;19908;-69
2023/01/31 04:24:38;;;;;;;;;;;34.20;87.80;;;;;;5094431;28;19920;-67
2023/01/31 04:27:04;;;;;;;;;;;33.60;90.40;;;;;;5095220;28;19908;-71
2023/01/31 04:29:31;;;;;;;;;;;33.70;89.40;;;;;;5095148;28;19946;-72
2023/01/31 04:31:58;;;;;;;;;;;33.30;89.50;;;;;;5095470;28;19951;-67
2023/01/31 04:34:24;;;;;;;;;;;34.10;88.20;;;;;;5095200;28;20354;-70
2023/01/31 04:36:51;;;;;;;;;;;35.30;85.50;;;;;;5095200;28;20003;-68
2023/01/31 04:39:17;;;;;;;;;;;36.30;83.20;;;;;;5095243;28;19912;-70
2023/01/31 04:41:44;;;;;;;;;;;36.80;81.70;;;;;;5095317;28;20365;-67
2023/01/31 04:44:11;;;;;;;;;;;36.50;83.00;;;;;;5094660;28;19908;-66
2023/01/31 04:46:38;;;;;;;;;;;36.00;83.20;;;;;;5095180;28;19909;-68
2023/01/31 04:49:04;;;;;;;;;;;35.60;82.80;;;;;;5095237;28;19916;-66
2023/01/31 04:51:31;;;;;;;;;;;35.30;83.40;;;;;;5095063;28;19908;-71
2023/01/31 04:54:05;;;;;;;;;;;34.50;85.70;;;;;;5095269;28;19990;-72
2023/01/31 04:56:31;;;;;;;;;;;33.90;86.50;;;;;;5095134;28;19908;-67
2023/01/31 04:58:58;;;;;;;;;;;33.20;87.60;;;;;;5095136;28;19930;-68
2023/01/31 05:01:25;;;;;;;;;;;32.70;90.00;;;;;;5095320;28;19965;-67
2023/01/31 05:03:51;;;;;;;;;;;32.10;90.90;;;;;;5095048;28;19912;-66
2023/01/31 05:06:18;;;;;;;;;;;31.80;91.30;;;;;;5095039;28;19908;-71
2023/01/31 05:08:45;;;;;;;;;;;32.30;91.80;;;;;;5094582;28;19920;-70
2023/01/31 05:11:12;;;;;;;;;;;32.90;90.10;;;;;;5094617;28;20399;-67
2023/01/31 05:13:38;;;;;;;;;;;33.60;90.20;;;;;;5094477;28;20398;-67
2023/01/31 05:16:06;;;;;;;;;;;33.90;87.80;;;;;;5094976;28;20353;-66
2023/01/31 05:18:34;;;;;;;;;;;33.50;89.70;;;;;;5093092;28;19908;-66
2023/01/31 05:21:01;;;;;;;;;;;33.40;88.80;;;;;;5094456;28;19915;-72
2023/01/31 05:23:29;;;;;;;;;;;33.20;89.10;;;;;;5092057;28;19915;-72
2023/01/31 05:25:55;;;;;;;;;;;34.00;88.90;;;;;;5093040;28;19908;-68
2023/01/31 05:28:24;;;;;;;;;;;35.50;84.80;;;;;;5094326;28;20011;-71
2023/01/31 05:30:53;;;;;;;;;;;36.30;82.40;;;;;;5094594;28;19931;-73
2023/01/31 05:33:20;;;;;;;;;;;36.60;81.80;;;;;;5094317;28;19912;-72
2023/01/31 05:35:47;;;;;;;;;;;36.10;82.20;;;;;;5094270;28;19920;-72
2023/01/31 05:38:14;;;;;;;;;;;35.30;83.30;;;;;;5093936;28;20292;-71
2023/01/31 05:40:40;;;;;;;;;;;35.10;83.40;;;;;;5094430;28;19962;-74
2023/01/31 05:43:07;;;;;;;;;;;34.60;84.10;;;;;;5091627;28;19908;-71
2023/01/31 05:45:34;;;;;;;;;;;33.80;85.70;;;;;;5089628;28;19915;-72
2023/01/31 05:48:01;;;;;;;;;;;32.90;86.90;;;;;;5092657;28;20027;-72
2023/01/31 05:50:28;;;;;;;;;;;32.00;89.20;;;;;;5093745;28;19912;-72
2023/01/31 05:52:55;;;;;;;;;;;31.10;90.70;;;;;;5093279;28;19908;-70
2023/01/31 05:55:22;;;;;;;;;;;31.20;91.00;;;;;;5073559;28;20326;-70
2023/01/31 05:57:49;;;;;;;;;;;31.60;90.90;;;;;;5073153;28;20011;-70
2023/01/31 06:00:16;;;;;;;;;;;32.70;89.80;;;;;;5085752;28;19962;-71
2023/01/31 06:02:42;;;;;;;;;;;34.00;86.60;;;;;;5091618;28;20369;-72
2023/01/31 06:05:09;;;;;;;;;;;35.20;83.80;;;;;;5091542;28;19951;-71
2023/01/31 06:07:36;;;;;;;;;;;36.30;81.40;;;;;;5092656;28;19961;-72
2023/01/31 06:10:03;;;;;;;;;;;37.00;79.50;;;;;;5093108;28;19961;-72
2023/01/31 06:12:30;;;;;;;;;;;37.60;78.10;;;;;;5093107;28;19908;-74
2023/01/31 06:14:56;;;;;;;;;;;37.90;78.30;;;;;;5077300;28;19938;-73
2023/01/31 06:17:23;;;;;;;;;;;38.70;75.70;;;;;;5090836;28;19999;-72
2023/01/31 06:19:50;;;;;;;;;;;38.60;75.80;;;;;;5091451;28;20280;-72
2023/01/31 06:22:18;;;;;;;;;;;38.10;76.40;;;;;;5092201;28;19919;-68
2023/01/31 06:24:44;;;;;;;;;;;38.10;75.80;;;;;;5076696;28;19912;-73
2023/01/31 06:27:11;;;;;;;;;;;38.10;76.50;;;;;;5070922;28;19962;-69
2023/01/31 06:29:38;;;;;;;;;;;37.90;76.00;;;;;;5071981;28;20431;-72
2023/01/31 06:32:04;;;;;;;;;;;37.50;76.20;;;;;;5072279;28;20001;-71
2023/01/31 06:34:31;;;;;;;;;;;36.30;78.10;;;;;;5071969;28;19908;-71
2023/01/31 06:36:58;;;;;;;;;;;35.40;79.80;;;;;;5076219;28;19955;-69
2023/01/31 06:39:25;;;;;;;;;;;34.80;82.50;;;;;;5073576;28;20003;-70
2023/01/31 06:41:52;;;;;;;;;;;34.40;83.40;;;;;;5072257;28;19908;-70
2023/01/31 06:44:18;;;;;;;;;;;34.20;83.90;;;;;;5072042;28;20023;-69
2023/01/31 06:46:45;;;;;;;;;;;33.80;83.50;;;;;;5073618;28;20434;-69
2023/01/31 06:49:12;;;;;;;;;;;33.10;85.50;;;;;;5088988;28;19948;-69
2023/01/31 06:51:39;;;;;;;;;;;32.50;86.80;;;;;;5091870;28;19908;-69
2023/01/31 06:54:06;;;;;;;;;;;32.20;88.00;;;;;;5083036;28;19909;-70
2023/01/31 06:56:32;;;;;;;;;;;31.70;88.30;;;;;;5073332;28;19998;-71
2023/01/31 06:58:59;;;;;;;;;;;31.30;90.40;;;;;;5090372;28;20352;-70
2023/01/31 07:01:26;;;;;;;;;;;31.00;90.20;;;;;;5092169;28;19908;-71
2023/01/31 07:03:52;;;;;;;;;;;30.70;90.80;;;;;;5089347;28;19998;-69
2023/01/31 07:06:20;;;;;;;;;;;30.50;91.10;;;;;;5080970;28;19959;-70
2023/01/31 07:08:47;;;;;;;;;;;30.30;91.30;;;;;;5071665;28;20361;-70
2023/01/31 07:11:13;;;;;;;;;;;30.00;91.50;;;;;;5071489;28;19934;-71
2023/01/31 07:13:40;;;;;;;;;;;29.70;91.40;;;;;;5071345;28;19909;-72
2023/01/31 07:16:07;;;;;;;;;;;29.40;92.00;;;;;;5080016;28;19918;-71
2023/01/31 07:18:33;;;;;;;;;;;29.30;92.40;;;;;;5091793;28;19982;-70
2023/01/31 07:21:00;;;;;;;;;;;29.10;92.70;;;;;;5091934;28;19909;-73
2023/01/31 07:23:27;;;;;;;;;;;28.90;93.10;;;;;;5088327;28;19940;-72
2023/01/31 07:25:53;;;;;;;;;;;29.00;93.00;;;;;;5078310;28;19999;-70
2023/01/31 07:28:20;;;;;;;;;;;29.00;93.00;;;;;;5092273;28;20008;-72
2023/01/31 07:30:47;;;;;;;;;;;29.00;92.90;;;;;;5080563;28;20377;-70
2023/01/31 07:33:13;;;;;;;;;;;28.90;92.90;;;;;;5076768;28;20400;-72
2023/01/31 07:35:43;;;;;;;;;;;28.80;93.10;;;;;;5090255;28;19928;-68
2023/01/31 07:38:10;;;;;;;;;;;28.60;93.30;;;;;;5093422;28;20353;-71
2023/01/31 07:40:36;;;;;;;;;;;28.40;93.60;;;;;;5094429;28;19919;-73
2023/01/31 07:43:03;;;;;;;;;;;28.30;93.30;;;;;;5092006;28;19916;-71
2023/01/31 07:45:29;;;;;;;;;;;28.20;93.50;;;;;;5091341;28;19933;-70
2023/01/31 07:47:59;;;;;;;;;;;27.90;93.70;;;;;;5094970;28;19924;-71
2023/01/31 07:50:26;;;;;;;;;;;27.90;93.70;;;;;;5096032;28;19908;-71
2023/01/31 07:52:53;;;;;;;;;;;27.80;93.70;;;;;;5095057;28;19915;-69
2023/01/31 07:55:20;;;;;;;;;;;27.70;93.70;;;;;;5072778;28;19916;-70
2023/01/31 07:57:46;;;;;;;;;;;27.50;94.10;;;;;;5074519;28;19915;-70
2023/01/31 08:05:45;;;;;;;;;;;27.10;94.70;;;;;;5084701;28;19962;-71
2023/01/31 08:08:11;;;;;;;;;;;27.10;95.00;;;;;;5074857;28;20375;-72
2023/01/31 08:10:39;;;;;;;;;;;26.90;94.90;;;;;;5075297;28;19909;-71
2023/01/31 08:13:05;;;;;;;;;;;26.80;94.60;;;;;;5075139;28;19908;-71
2023/01/31 08:15:33;;;;;;;;;;;26.60;95.00;;;;;;5081599;28;19912;-70
2023/01/31 08:17:59;;;;;;;;;;;26.50;95.20;;;;;;5095459;28;19908;-71
2023/01/31 08:20:26;;;;;;;;;;;26.40;95.50;;;;;;5095589;28;19919;-71
2023/01/31 08:22:53;;;;;;;;;;;26.20;95.70;;;;;;5095474;28;19915;-72
2023/01/31 08:25:20;;;;;;;;;;;26.10;95.60;;;;;;5079541;28;20510;-69
2023/01/31 08:27:47;;;;;;;;;;;26.00;95.80;;;;;;5094173;28;20284;-69
2023/01/31 08:30:13;;;;;;;;;;;26.00;95.80;;;;;;5094591;28;19912;-70
2023/01/31 08:32:40;;;;;;;;;;;25.90;95.80;;;;;;5082512;28;19954;-70
2023/01/31 08:35:07;;;;;;;;;;;25.80;95.90;;;;;;5082359;28;19921;-71
2023/01/31 08:37:34;;;;;;;;;;;25.80;95.90;;;;;;5075449;28;19908;-67
2023/01/31 08:40:00;;;;;;;;;;;25.70;96.00;;;;;;5093298;28;20443;-69
2023/01/31 08:42:27;;;;;;;;;;;25.60;96.20;;;;;;5094597;28;19912;-66
2023/01/31 08:44:54;;;;;;;;;;;25.50;96.40;;;;;;5085275;28;19912;-67
2023/01/31 08:47:21;;;;;;;;;;;25.40;96.40;;;;;;5084829;28;20015;-68
2023/01/31 08:49:47;;;;;;;;;;;25.30;96.70;;;;;;5094279;28;19920;-66
2023/01/31 08:52:14;;;;;;;;;;;25.20;97.00;;;;;;5083265;28;19920;-69
2023/01/31 08:54:40;;;;;;;;;;;25.10;97.10;;;;;;5089063;28;19918;-68
2023/01/31 08:57:07;;;;;;;;;;;25.00;97.00;;;;;;5089859;28;19943;-67
2023/01/31 08:59:34;;;;;;;;;;;24.90;97.30;;;;;;5083413;28;19912;-69
2023/01/31 09:02:00;;;;;;;;;;;24.90;97.20;;;;;;5083400;28;19921;-67
2023/01/31 09:04:27;;;;;;;;;;;24.80;97.30;;;;;;5080981;28;19920;-69
2023/01/31 09:06:54;;;;;;;;;;;24.70;97.40;;;;;;5079239;28;19917;-70
2023/01/31 09:09:21;;;;;;;;;;;24.60;97.10;;;;;;5083723;28;20391;-67
2023/01/31 09:11:47;;;;;;;;;;;24.50;96.90;;;;;;5094697;28;19908;-65
2023/01/31 09:14:14;;;;;;;;;;;24.40;96.90;;;;;;5078880;28;19912;-66
2023/01/31 09:16:41;;;;;;;;;;;24.40;96.90;;;;;;5073961;28;19909;-67
2023/01/31 09:19:07;;;;;;;;;;;24.40;96.80;;;;;;5074168;28;19913;-69
2023/01/31 09:21:34;;;;;;;;;;;24.40;97.00;;;;;;5092484;28;19912;-68
2023/01/31 09:24:04;;;;;;;;;;;24.40;97.20;;;;;;5094744;28;20419;-67
2023/01/31 09:26:31;;;;;;;;;;;24.30;97.30;;;;;;5082859;28;20377;-67
2023/01/31 09:29:00;;;;;;;;;;;24.20;97.50;;;;;;5074115;28;19948;-69
2023/01/31 09:31:26;;;;;;;;;;;24.20;97.70;;;;;;5086005;28;19912;-69
2023/01/31 09:33:53;;;;;;;;;;;24.20;97.80;;;;;;5093931;28;19919;-68
2023/01/31 09:36:21;;;;;;;;;;;24.10;97.50;;;;;;5094149;28;19920;-66
2023/01/31 09:38:48;;;;;;;;;;;24.00;97.60;;;;;;5094374;28;19908;-68
2023/01/31 09:41:16;;;;;;;;;;;24.10;97.60;;;;;;5075385;28;20277;-68
2023/01/31 09:43:45;;;;;;;;;;;24.00;97.50;;;;;;5088981;28;19919;-67
2023/01/31 09:46:17;;;;;;;;;;;24.00;97.50;;;;;;5094483;28;19908;-67
2023/01/31 09:48:45;;;;;;;;;;;23.90;97.50;;;;;;5094154;28;19920;-67
2023/01/31 09:51:12;;;;;;;;;;;23.90;97.70;;;;;;5094174;28;20406;-70
2023/01/31 09:53:40;;;;;;;;;;;23.90;97.90;;;;;;5081990;28;19931;-67
2023/01/31 09:56:07;;;;;;;;;;;23.80;98.10;;;;;;5084390;28;19915;-68
2023/01/31 09:58:34;;;;;;;;;;;23.80;98.40;;;;;;5093773;28;20296;-67
2023/01/31 10:01:11;;;;;;;;;;;23.80;98.50;;;;;;5093655;28;19912;-68
2023/01/31 10:03:43;;;;;;;;;;;23.70;98.70;;;;;;5080726;28;19920;-69
2023/01/31 10:06:23;;;;;;;;;;;23.70;98.70;;;;;;5093273;28;19935;-66
2023/01/31 10:08:58;;;;;;;;;;;23.70;98.80;;;;;;5092699;28;20391;-68
2023/01/31 10:11:32;;;;;;;;;;;23.70;98.80;;;;;;5092975;28;19908;-68
2023/01/31 10:14:13;;;;;;;;;;;23.80;98.70;;;;;;5072752;28;19912;-67
2023/01/31 10:16:47;;;;;;;;;;;23.80;98.60;;;;;;5073287;28;19909;-68
2023/01/31 10:19:16;;;;;;;;;;;23.80;98.60;;;;;;5055181;28;19935;-67
2023/01/31 10:21:46;;;;;;;;;;;23.80;98.50;;;;;;5075096;28;19916;-68
2023/01/31 10:24:15;;;;;;;;;;;23.90;98.80;;;;;;5093149;28;19912;-66
2023/01/31 10:26:44;;;;;;;;;;;23.90;98.80;;;;;;5093354;28;19996;-70
2023/01/31 10:29:15;;;;;;;;;;;23.90;98.90;;;;;;5093223;28;19922;-66
2023/01/31 10:32:00;;;;;;;;;;;23.90;99.10;;;;;;5091054;28;20420;-68
2023/01/31 10:34:33;;;;;;;;;;;23.90;99.20;;;;;;5085339;28;19912;-65
2023/01/31 10:37:09;;;;;;;;;;;23.90;99.30;;;;;;5093421;28;20284;-67
2023/01/31 10:39:47;;;;;;;;;;;23.90;99.40;;;;;;5092560;28;19919;-66
2023/01/31 10:42:20;;;;;;;;;;;23.90;99.50;;;;;;5092837;28;19912;-67
2023/01/31 10:44:51;;;;;;;;;;;23.90;99.60;;;;;;5092246;28;19970;-67
2023/01/31 10:47:19;;;;;;;;;;;23.90;99.60;;;;;;5090929;28;19956;-67
2023/01/31 10:49:49;;;;;;;;;;;23.90;99.60;;;;;;5089463;28;20002;-67
2023/01/31 10:52:24;;;;;;;;;;;23.90;99.80;;;;;;5086640;28;19912;-67
2023/01/31 10:54:53;;;;;;;;;;;23.80;99.90;;;;;;5072254;28;19912;-66
2023/01/31 10:57:21;;;;;;;;;;;23.90;99.90;;;;;;5072309;28;19912;-67
2023/01/31 10:59:48;;;;;;;;;;;23.80;99.90;;;;;;5072230;28;19908;-67
2023/01/31 11:02:19;;;;;;;;;;;23.90;99.90;;;;;;5077440;28;20034;-68
2023/01/31 11:04:46;;;;;;;;;;;23.90;99.90;;;;;;5092431;28;19915;-67
2023/01/31 11:07:13;;;;;;;;;;;23.90;99.90;;;;;;5092487;28;19908;-68
2023/01/31 11:09:44;;;;;;;;;;;23.80;99.90;;;;;;5092735;28;19951;-67
2023/01/31 11:12:11;;;;;;;;;;;23.80;99.90;;;;;;5087927;28;20373;-68
2023/01/31 11:14:38;;;;;;;;;;;23.80;99.90;;;;;;5088187;28;20316;-69
2023/01/31 11:17:13;;;;;;;;;;;23.70;99.90;;;;;;5092156;28;19918;-67
2023/01/31 11:19:43;;;;;;;;;;;23.70;99.90;;;;;;5090830;28;19908;-68
2023/01/31 11:22:30;;;;;;;;;;;23.60;99.90;;;;;;5075984;28;19934;-69
2023/01/31 11:24:57;;;;;;;;;;;23.60;99.90;;;;;;5091952;28;19908;-68
2023/01/31 11:27:43;;;;;;;;;;;23.60;99.90;;;;;;5094104;28;19904;-68
2023/01/31 11:30:20;;;;;;;;;;;23.60;99.90;;;;;;5093294;28;19924;-67
2023/01/31 11:32:48;;;;;;;;;;;23.60;99.90;;;;;;5080670;28;19913;-66
2023/01/31 11:35:14;;;;;;;;;;;23.50;99.90;;;;;;5070646;28;20350;-66
2023/01/31 11:37:52;;;;;;;;;;;23.60;99.90;;;;;;5071823;28;19916;-67
2023/01/31 11:40:20;;;;;;;;;;;23.60;99.90;;;;;;5071958;28;19909;-68
2023/01/31 11:42:52;;;;;;;;;;;23.60;99.90;;;;;;5083448;28;19912;-68
2023/01/31 11:45:21;;;;;;;;;;;23.60;99.90;;;;;;5091963;28;19985;-67
2023/01/31 11:47:50;;;;;;;;;;;23.60;99.90;;;;;;5091788;28;19915;-69
2023/01/31 11:50:34;;;;;;;;;;;23.50;99.90;;;;;;5086337;28;19923;-68
2023/01/31 11:53:01;;;;;;;;;;;23.50;99.90;;;;;;5084369;28;19912;-66
2023/01/31 11:55:35;;;;;;;;;;;23.60;99.90;;;;;;5092004;28;19908;-66
2023/01/31 11:58:02;;;;;;;;;;;23.50;99.90;;;;;;5091987;28;19939;-67
2023/01/31 12:00:31;;;;;;;;;;;23.50;99.90;;;;;;5092165;28;19908;-67
2023/01/31 12:03:05;;;;;;;;;;;23.50;99.90;;;;;;5090018;28;19934;-69
2023/01/31 12:05:40;;;;;;;;;;;23.50;99.90;;;;;;5092204;28;20384;-68
2023/01/31 12:08:27;;;;;;;;;;;23.50;99.90;;;;;;5090793;28;19958;-66
2023/01/31 12:10:54;;;;;;;;;;;23.50;99.90;;;;;;5072102;28;20354;-65
2023/01/31 12:13:22;;;;;;;;;;;23.40;99.90;;;;;;5086266;28;19911;-67
2023/01/31 12:16:04;;;;;;;;;;;23.30;99.90;;;;;;5092086;28;19926;-66
2023/01/31 12:18:31;;;;;;;;;;;23.30;99.90;;;;;;5093290;28;19912;-66
2023/01/31 12:21:03;;;;;;;;;;;23.30;99.90;;;;;;5084460;28;20445;-66
2023/01/31 12:23:47;;;;;;;;;;;23.20;99.90;;;;;;5091130;28;19912;-67
2023/01/31 12:26:24;;;;;;;;;;;23.20;99.90;;;;;;5090090;28;19917;-67
2023/01/31 12:28:58;;;;;;;;;;;23.10;99.90;;;;;;5074374;28;19920;-67
2023/01/31 12:31:25;;;;;;;;;;;23.10;99.90;;;;;;5074766;28;20026;-67
2023/01/31 12:33:54;;;;;;;;;;;23.00;99.90;;;;;;5075175;28;19927;-67
2023/01/31 12:36:30;;;;;;;;;;;23.00;99.90;;;;;;5081408;28;19927;-66
2023/01/31 12:39:16;;;;;;;;;;;23.00;99.90;;;;;;5095077;28;19908;-67
2023/01/31 12:41:59;;;;;;;;;;;22.90;99.90;;;;;;5095284;28;20313;-67
2023/01/31 12:44:28;;;;;;;;;;;22.90;99.90;;;;;;5095345;28;19912;-66
2023/01/31 12:47:14;;;;;;;;;;;22.90;99.90;;;;;;5083775;28;20380;-67
2023/01/31 12:49:47;;;;;;;;;;;22.80;99.90;;;;;;5074849;28;20292;-66
2023/01/31 12:52:26;;;;;;;;;;;22.80;99.90;;;;;;5073326;28;19999;-68
2023/01/31 12:55:12;;;;;;;;;;;22.70;99.90;;;;;;5073227;28;19920;-68
2023/01/31 12:57:39;;;;;;;;;;;22.70;99.90;;;;;;5091741;28;19989;-66
2023/01/31 13:00:17;;;;;;;;;;;22.70;99.90;;;;;;5094874;28;20407;-66
2023/01/31 13:02:50;;;;;;;;;;;22.70;99.90;;;;;;5095239;28;19915;-66
2023/01/31 13:05:48;;;;;;;;;;;22.60;99.90;;;;;;5095178;28;19913;-66
2023/01/31 13:08:22;;;;;;;;;;;22.60;99.90;;;;;;5051309;28;19927;-66
2023/01/31 13:10:55;;;;;;;;;;;22.60;99.90;;;;;;5074833;28;19909;-67
2023/01/31 13:13:26;;;;;;;;;;;22.60;99.90;;;;;;5074358;28;19908;-67
2023/01/31 13:15:56;;;;;;;;;;;22.60;99.90;;;;;;5091294;28;20011;-69
2023/01/31 13:18:23;;;;;;;;;;;22.60;99.90;;;;;;5074206;28;19904;-66
2023/01/31 13:21:01;;;;;;;;;;;22.50;99.90;;;;;;5074544;28;19908;-66
2023/01/31 13:23:33;;;;;;;;;;;22.50;99.90;;;;;;5074650;28;19934;-67
2023/01/31 13:26:08;;;;;;;;;;;22.50;99.90;;;;;;5076942;28;19913;-68
2023/01/31 13:28:45;;;;;;;;;;;22.50;99.90;;;;;;5094107;28;20001;-67
2023/01/31 13:31:26;;;;;;;;;;;22.40;99.90;;;;;;5094707;28;19919;-65
2023/01/31 13:33:56;;;;;;;;;;;22.40;99.90;;;;;;5094494;28;20046;-68
2023/01/31 13:36:30;;;;;;;;;;;22.40;99.90;;;;;;5088627;28;19928;-67
2023/01/31 13:38:59;;;;;;;;;;;22.40;99.90;;;;;;5074353;28;19908;-68
2023/01/31 13:41:32;;;;;;;;;;;22.40;99.90;;;;;;5074395;28;19998;-68
2023/01/31 13:44:00;;;;;;;;;;;22.30;99.90;;;;;;5076520;28;20062;-66
2023/01/31 13:46:33;;;;;;;;;;;22.30;99.90;;;;;;5088137;28;19918;-68
2023/01/31 13:49:14;;;;;;;;;;;22.30;99.90;;;;;;5073233;28;19920;-66
2023/01/31 13:51:43;;;;;;;;;;;22.20;99.90;;;;;;5073893;28;20381;-68
2023/01/31 13:54:10;;;;;;;;;;;22.20;99.90;;;;;;5073873;28;19913;-66
2023/01/31 13:56:38;;;;;;;;;;;22.20;99.90;;;;;;5080319;28;20380;-66
2023/01/31 13:59:09;;;;;;;;;;;22.10;99.90;;;;;;5092519;28;19908;-65
2023/01/31 14:01:44;;;;;;;;;;;22.10;99.90;;;;;;5094107;28;20418;-67
2023/01/31 14:04:13;;;;;;;;;;;22.10;99.90;;;;;;5093776;28;19912;-67
2023/01/31 14:06:53;;;;;;;;;;;22.10;99.90;;;;;;5080247;28;20479;-68
2023/01/31 14:09:27;;;;;;;;;;;22.10;99.90;;;;;;5073592;28;19924;-68
2023/01/31 14:12:01;;;;;;;;;;;22.00;99.90;;;;;;5074032;28;19912;-66
2023/01/31 14:14:36;;;;;;;;;;;22.00;99.90;;;;;;5073460;28;19914;-69
2023/01/31 14:17:03;;;;;;;;;;;22.00;99.90;;;;;;5086889;28;19965;-70
2023/01/31 14:19:30;;;;;;;;;;;22.00;99.90;;;;;;5092986;28;19974;-66
2023/01/31 14:22:12;;;;;;;;;;;22.00;99.90;;;;;;5090348;28;19908;-66
2023/01/31 14:27:33;;;;;;;;;;;21.90;99.90;;;;;;5091066;28;20002;-66
2023/01/31 14:30:05;;;;;;;;;;;21.90;99.90;;;;;;5090318;28;19916;-65
2023/01/31 14:32:38;;;;;;;;;;;21.80;99.90;;;;;;5087278;28;19920;-67
2023/01/31 14:35:24;;;;;;;;;;;21.80;99.90;;;;;;5091822;28;19916;-67
2023/01/31 14:37:51;;;;;;;;;;;21.80;99.90;;;;;;5064060;28;20266;-67
2023/01/31 14:40:17;;;;;;;;;;;21.80;99.90;;;;;;5089596;28;19908;-65
2023/01/31 14:42:57;;;;;;;;;;;21.80;99.90;;;;;;5092040;28;19912;-66
2023/01/31 14:45:32;;;;;;;;;;;21.70;99.90;;;;;;5090770;28;19908;-66